Latest Conditions
At L.F.Wade Int. Airport
Recorded at 12:55 pm
Partly Cloudy
Temp.: 
29°C/83°F
Humidity: 
71%
Wind: 
SE 14KT
or 16mph
UV Index: 
11
Island Observations
 
Observations
Sunday, July 22, 2018

Observations are in local time and taken at least once an hour, or upon the start and end of specified events such as showers and thunderstorms.

Time Sky / Weather Wind Speed/Gusts Temp. R.H. Pressure
     knots (mph)  °C (°F)  %  mb / "Hg
 12:55 Partly Cloudy  SE 14/0 (16/0) 29(83) 71 1023 / 30.21
 11:55 Partly Cloudy  SE 12/0 (14/0) 28(83) 73 1023 / 30.21
 10:55 Partly Cloudy  ESE 12/0 (14/0) 28(82) 73 1023 / 30.20
 09:55 Partly Cloudy  SE 12/0 (14/0) 28(82) 73 1023 / 30.21
 08:55 Partly Cloudy  SE 11/0 (13/0) 27(81) 73 1023 / 30.21
 07:55 Partly Cloudy  ESE 13/0 (15/0) 26(80) 78 1023 / 30.21
 06:55 Few Clouds  ESE 12/0 (14/0) 26(79) 78 1023 / 30.20
 05:55 Few Clouds  SE 13/0 (15/0) 26(79) 78 1023 / 30.20
 04:55 Few Clouds Showers SE 12/0 (14/0) 26(79) 78 1022 / 30.18
 04:14 Mostly Cloudy Showers SE 12/0 (14/0) 26(79) 80 1022 / 30.18
 03:55 Mostly Cloudy Showers ESE 11/0 (13/0) 25(78) 78 1022 / 30.19
 02:55 Partly Cloudy Showers SE 11/0 (13/0) 26(79) 80 1023 / 30.20
 01:55 Few Clouds  SE 11/0 (13/0) 26(80) 78 1023 / 30.21
 00:55 Partly Cloudy  SE 12/0 (14/0) 26(79) 81 1024 / 30.23
 23:55 Mostly Cloudy  SE 12/0 (14/0) 26(79) 81 1024 / 30.23
 22:55 Mostly Cloudy  SE 11/0 (13/0) 26(79) 80 1024 / 30.24
 21:55 Mostly Cloudy  ESE 10/0 (12/0) 26(80) 78 1023 / 30.22
 20:55 Mostly Cloudy Showers SE 10/0 (12/0) 26(79) 80 1023 / 30.21
 19:55 Mostly Cloudy  SE 12/0 (14/0) 26(80) 79 1023 / 30.20
 18:55 Mostly Cloudy  SSE 12/0 (14/0) 27(80) 77 1023 / 30.20
 17:55 Mostly Cloudy  SSE 13/0 (15/0) 27(81) 75 1022 / 30.19
 16:55 Mostly Cloudy  SSE 12/0 (14/0) 27(81) 73 1023 / 30.20
 15:55 Mostly Cloudy  SSE 12/0 (14/0) 27(81) 77 1022 / 30.19
 14:55 Mostly Cloudy  SSE 13/0 (15/0) 28(83) 75 1023 / 30.20
 13:55 Mostly Cloudy  S 13/0 (15/0) 28(83) 72 1023 / 30.20
 12:55 Mostly Cloudy  SSE 14/0 (16/0) 28(82) 75 1023 / 30.21
 11:55 Mostly Cloudy Showers SSE 14/0 (16/0) 27(80) 80 1023 / 30.22
 10:55 Mostly Cloudy Showers SSE 13/0 (15/0) 26(80) 81 1023 / 30.21
 09:55 Mostly Cloudy  S 11/0 (13/0) 26(80) 81 1023 / 30.21
 08:55 Mostly Cloudy  SSE 12/0 (14/0) 26(79) 83 1023 / 30.20
 07:55 Mostly Cloudy Showers SSE 12/0 (14/0) 26(79) 85 1023 / 30.20
 06:55 Mostly Cloudy  SSE 15/0 (17/0) 26(78) 86 1022 / 30.19
 05:55 Mostly Cloudy  SSE 14/0 (16/0) 26(79) 81 1022 / 30.19
 04:55 Mostly Cloudy Showers SSE 12/0 (14/0) 26(79) 84 1022 / 30.18
 03:55 Mostly Cloudy  SE 9/0 (10/0) 26(79) 85 1022 / 30.19
 02:55 Mostly Cloudy  SSE 10/0 (12/0) 26(79) 86 1023 / 30.20
 01:55 Mostly Cloudy  SSE 11/0 (13/0) 26(79) 83 1023 / 30.20
 00:55 Mostly Cloudy Showers S 10/0 (12/0) 26(79) 88 1023 / 30.22
 23:55 Mostly Cloudy Showers SSE 11/0 (13/0) 26(80) 85 1023 / 30.22
 22:55 Mostly Cloudy Showers SSE 9/0 (10/0) 26(80) 87 1023 / 30.22
 21:55 Mostly Cloudy Showers S 8/0 (9/0) 26(80) 88 1023 / 30.22
 20:55 Mostly Cloudy Showers S 8/0 (9/0) 26(80) 87 1023 / 30.21
 19:55 Mostly Cloudy Showers S 9/0 (10/0) 27(81) 82 1023 / 30.20
 18:55 Mostly Cloudy  S 10/0 (12/0) 27(81) 82 1022 / 30.19
 17:55 Mostly Cloudy  S 11/0 (13/0) 28(82) 79 1022 / 30.19
 16:55 Mostly Cloudy  S 12/0 (14/0) 28(82) 81 1022 / 30.19
 15:55 Mostly Cloudy  S 11/0 (13/0) 28(82) 82 1022 / 30.19
 14:55 Mostly Cloudy  SSW 10/0 (12/0) 28(82) 78 1023 / 30.20
 13:55 Mostly Cloudy Showers S 14/0 (16/0) 27(81) 82 1023 / 30.20
 12:55 Overcast Showers SSW 12/0 (14/0) 28(82) 82 1023 / 30.22
 11:55 Overcast Showers S 14/0 (16/0) 28(82) 82 1023 / 30.22
 10:55 Overcast  S 15/0 (17/0) 27(81) 83 1023 / 30.21
 09:55 Overcast Showers SSW 12/0 (14/0) 27(80) 86 1022 / 30.19
 08:55 Mostly Cloudy Showers S 14/0 (16/0) 27(80) 87 1022 / 30.19
 08:08 Overcast Showers SW 9/0 (10/0) 25(78) 87 1023 / 30.20
 07:55 Overcast Showers SSW 14/0 (16/0) 25(77) 82 1022 / 30.19
 07:09 Overcast Showers WSW 10/0 (12/0) 25(78) 83 1022 / 30.19
 06:55 Overcast Showers SW 15/0 (17/0) 25(77) 85 1022 / 30.18
 05:55 Mostly Cloudy Showers SSW 14/0 (16/0) 26(79) 86 1022 / 30.17
 04:55 Overcast  S 15/0 (17/0) 26(80) 85 1021 / 30.16
 03:55 Mostly Cloudy Showers S 15/0 (17/0) 26(80) 84 1021 / 30.16
 02:55 Overcast  S 14/0 (16/0) 26(80) 85 1022 / 30.17
 01:55 Mostly Cloudy  S 14/0 (16/0) 27(80) 85 1022 / 30.17
 00:55 Overcast  S 14/0 (16/0) 26(80) 85 1022 / 30.18
 23:55 Overcast  S 13/0 (15/0) 26(80) 83 1022 / 30.19
 22:55 Overcast  S 13/0 (15/0) 27(80) 81 1022 / 30.18
 21:55 Overcast  SSW 12/0 (14/0) 27(80) 81 1022 / 30.18
 20:55 Overcast  SSW 13/0 (15/0) 27(80) 82 1022 / 30.17
 19:55 Overcast  SSW 14/0 (16/0) 27(80) 81 1022 / 30.17
 18:55 Overcast  SSW 15/0 (17/0) 27(81) 80 1022 / 30.17
 17:55 Overcast  SSW 17/0 (20/0) 27(81) 81 1022 / 30.17
 16:55 Overcast  SSW 18/0 (21/0) 28(82) 75 1021 / 30.16
 15:55 Mostly Cloudy  SSW 13/0 (15/0) 27(81) 79 1021 / 30.16
 14:55 Mostly Cloudy  S 14/0 (16/0) 28(83) 73 1022 / 30.17
 13:55 Overcast  S 16/0 (18/0) 28(82) 78 1022 / 30.17
 12:55 Overcast  S 15/0 (17/0) 28(82) 74 1022 / 30.17
 11:55 Overcast  S 15/0 (17/0) 28(83) 76 1022 / 30.17
 10:55 Overcast  SSW 15/0 (17/0) 28(82) 73 1022 / 30.18
 09:55 Overcast  SSW 14/0 (16/0) 27(81) 78 1022 / 30.18
 08:55 Overcast  SSW 15/0 (17/0) 27(81) 77 1022 / 30.18
 07:55 Overcast  SSW 14/0 (16/0) 26(80) 80 1022 / 30.17
 06:55 Overcast  SSW 15/0 (17/0) 26(79) 81 1021 / 30.15
 05:55 Mostly Cloudy  SSW 15/0 (17/0) 26(79) 79 1021 / 30.14
 04:55 Overcast  SSW 15/0 (17/0) 26(79) 82 1021 / 30.15
 03:55 Mostly Cloudy  SSW 14/0 (16/0) 26(79) 83 1021 / 30.15
 02:55 Overcast  SSW 15/0 (17/0) 26(79) 82 1021 / 30.15
 01:55 Overcast  SSW 14/0 (16/0) 26(79) 81 1021 / 30.15
 00:55 Overcast  SSW 14/0 (16/0) 26(79) 80 1021 / 30.16
 23:55 Mostly Cloudy  SSW 15/0 (17/0) 26(79) 82 1022 / 30.17
 22:55 Mostly Cloudy  SSW 12/0 (14/0) 26(79) 83 1022 / 30.17
 21:55 Partly Cloudy  SSW 13/0 (15/0) 26(80) 82 1021 / 30.16
 20:55 Mostly Cloudy  SW 13/0 (15/0) 27(80) 82 1021 / 30.16
 19:55 Mostly Cloudy  SW 14/0 (16/0) 27(81) 79 1021 / 30.16
 18:55 Mostly Cloudy  SW 15/0 (17/0) 28(82) 75 1021 / 30.15
 17:55 Mostly Cloudy  SW 13/0 (15/0) 28(82) 81 1021 / 30.15
 16:55 Mostly Cloudy  SSW 14/0 (16/0) 28(82) 78 1021 / 30.15
 15:55 Mostly Cloudy  SSW 16/0 (18/0) 28(83) 77 1021 / 30.15
 14:55 Mostly Cloudy  SSW 14/0 (16/0) 28(83) 71 1022 / 30.17
 13:55 Mostly Cloudy  SSW 12/0 (14/0) 28(82) 79 1022 / 30.17
 12:55 Mostly Cloudy Showers SSW 10/0 (12/0) 27(80) 87 1022 / 30.19
Island AWOS